createdAt,value
2024-01-11T00:00:26.293Z,16.12
2024-01-11T00:01:26.420Z,16.14
2024-01-11T00:02:26.405Z,16.17
2024-01-11T00:03:26.367Z,16.08
2024-01-11T00:04:26.499Z,15.99
2024-01-11T00:05:26.526Z,15.93
2024-01-11T00:06:26.549Z,15.97
2024-01-11T00:07:26.526Z,15.91
2024-01-11T00:08:26.558Z,15.97
2024-01-11T00:09:26.613Z,16.11
2024-01-11T00:10:26.591Z,16.72
2024-01-11T00:11:26.664Z,16.75
2024-01-11T00:12:26.727Z,16.58
2024-01-11T00:13:26.705Z,16.61
2024-01-11T00:14:26.771Z,16.21
2024-01-11T00:15:26.753Z,16.22
2024-01-11T00:16:26.773Z,16.14
2024-01-11T00:17:26.879Z,16.26
2024-01-11T00:18:26.940Z,17.02
2024-01-11T00:19:26.910Z,16.81
2024-01-11T00:20:26.982Z,16.38
2024-01-11T00:21:26.981Z,16.57
2024-01-11T00:22:26.990Z,16.63
2024-01-11T00:23:27.168Z,16.80
2024-01-11T00:24:27.833Z,16.90
2024-01-11T00:25:27.033Z,16.72
2024-01-11T00:26:27.110Z,16.70
2024-01-11T00:27:27.117Z,17.56
2024-01-11T00:28:27.170Z,18.01
2024-01-11T00:29:27.269Z,17.85
2024-01-11T00:30:27.191Z,17.07
2024-01-11T00:31:27.169Z,17.30
2024-01-11T00:32:27.379Z,17.68
2024-01-11T00:33:27.393Z,17.45
2024-01-11T00:34:27.377Z,17.31
2024-01-11T00:35:27.430Z,17.07
2024-01-11T00:36:27.384Z,17.10
2024-01-11T00:37:27.377Z,18.15
2024-01-11T00:38:27.452Z,18.23
2024-01-11T00:39:27.448Z,17.96
2024-01-11T00:40:27.514Z,17.56
2024-01-11T00:41:27.550Z,17.33
2024-01-11T00:42:27.608Z,17.03
2024-01-11T00:43:27.577Z,17.01
2024-01-11T00:44:27.670Z,17.04
2024-01-11T00:45:27.653Z,17.02
2024-01-11T00:46:27.655Z,17.43
2024-01-11T00:47:27.770Z,17.56
2024-01-11T00:48:27.799Z,18.14
2024-01-11T00:49:27.794Z,17.68
2024-01-11T00:50:27.828Z,17.93
2024-01-11T00:51:27.774Z,17.34
2024-01-11T00:52:27.832Z,17.06
2024-01-11T00:53:27.906Z,16.94
2024-01-11T00:54:27.893Z,17.12
2024-01-11T00:55:27.903Z,17.84
2024-01-11T00:56:27.998Z,17.34
2024-01-11T00:57:27.978Z,17.03
2024-01-11T00:58:27.972Z,16.96
2024-01-11T00:59:28.058Z,16.94
2024-01-11T01:00:28.036Z,16.83
2024-01-11T01:01:28.154Z,16.74
2024-01-11T01:02:28.120Z,16.93
2024-01-11T01:03:28.186Z,16.80
2024-01-11T01:04:28.116Z,16.77
2024-01-11T01:05:28.260Z,16.76
2024-01-11T01:06:28.281Z,16.93
2024-01-11T01:07:28.210Z,16.78
2024-01-11T01:08:28.247Z,16.74
2024-01-11T01:09:28.244Z,16.74
2024-01-11T01:10:28.270Z,16.70
2024-01-11T01:11:28.333Z,17.34
2024-01-11T01:12:28.267Z,17.02
2024-01-11T01:13:28.304Z,16.87
2024-01-11T01:14:28.364Z,17.07
2024-01-11T01:15:28.300Z,16.95
2024-01-11T01:16:28.364Z,16.79
2024-01-11T01:17:28.482Z,16.93
2024-01-11T01:18:28.431Z,17.08
2024-01-11T01:19:28.517Z,16.93
2024-01-11T01:20:28.466Z,16.78
2024-01-11T01:21:28.430Z,16.73
2024-01-11T01:22:28.421Z,16.75
2024-01-11T01:23:28.449Z,16.75
2024-01-11T01:24:28.460Z,16.88
2024-01-11T01:25:28.480Z,16.87
2024-01-11T01:26:28.517Z,16.90
2024-01-11T01:27:28.486Z,16.80
2024-01-11T01:28:28.486Z,16.74
2024-01-11T01:29:28.595Z,16.89
2024-01-11T01:30:28.521Z,17.01
2024-01-11T01:31:28.574Z,16.87
2024-01-11T01:32:28.678Z,16.83
2024-01-11T01:33:28.818Z,17.31
2024-01-11T01:34:28.686Z,17.10
2024-01-11T01:35:28.648Z,16.92
2024-01-11T01:36:28.596Z,17.07
2024-01-11T01:37:28.614Z,16.95
2024-01-11T01:38:28.648Z,16.87
2024-01-11T01:39:28.648Z,16.83
2024-01-11T01:40:28.625Z,16.87
2024-01-11T01:41:28.690Z,17.09
2024-01-11T01:42:28.652Z,16.93
2024-01-11T01:43:28.661Z,16.96
2024-01-11T01:44:28.735Z,16.89
2024-01-11T01:45:28.704Z,16.86
2024-01-11T01:46:28.772Z,16.86
2024-01-11T01:47:28.808Z,16.89
2024-01-11T01:48:28.899Z,16.86
2024-01-11T01:49:28.825Z,16.91
2024-01-11T01:50:28.749Z,16.84
2024-01-11T01:51:28.825Z,16.86
2024-01-11T01:52:28.779Z,16.91
2024-01-11T01:53:28.792Z,17.00
2024-01-11T01:54:28.825Z,17.04
2024-01-11T01:55:28.739Z,16.91
2024-01-11T01:56:28.820Z,16.91
2024-01-11T01:57:28.831Z,17.04
2024-01-11T01:58:28.844Z,16.89
2024-01-11T01:59:28.859Z,16.89
2024-01-11T02:00:28.806Z,16.89
2024-01-11T02:01:28.908Z,16.91
2024-01-11T02:02:28.851Z,16.83
2024-01-11T02:03:28.881Z,16.86
2024-01-11T02:04:28.852Z,17.02
2024-01-11T02:05:28.988Z,17.06
2024-01-11T02:06:28.923Z,17.04
2024-01-11T02:07:28.857Z,16.96
2024-01-11T02:08:28.895Z,17.14
2024-01-11T02:09:28.847Z,17.35
2024-01-11T02:10:28.871Z,17.12
2024-01-11T02:11:28.909Z,17.01
2024-01-11T02:12:28.852Z,17.09
2024-01-11T02:13:28.873Z,17.03
2024-01-11T02:14:28.905Z,17.06
2024-01-11T02:15:28.886Z,17.01
2024-01-11T02:16:28.907Z,16.98
2024-01-11T02:17:29.015Z,17.20
2024-01-11T02:18:28.943Z,17.04
2024-01-11T02:19:29.003Z,17.06
2024-01-11T02:20:28.934Z,16.98
2024-01-11T02:21:28.900Z,17.04
2024-01-11T02:22:28.949Z,17.21
2024-01-11T02:23:29.013Z,17.06
2024-01-11T02:24:28.956Z,17.24
2024-01-11T02:25:28.954Z,17.21
2024-01-11T02:26:28.972Z,17.06
2024-01-11T02:27:28.968Z,17.02
2024-01-11T02:28:28.943Z,17.14
2024-01-11T02:29:29.051Z,17.14
2024-01-11T02:30:28.955Z,17.20
2024-01-11T02:31:28.973Z,17.23
2024-01-11T02:32:29.079Z,17.21
2024-01-11T02:33:29.155Z,17.24
2024-01-11T02:34:29.238Z,17.09
2024-01-11T02:35:29.062Z,17.03
2024-01-11T02:36:28.938Z,17.18
2024-01-11T02:37:28.976Z,17.14
2024-01-11T02:38:29.043Z,17.08
2024-01-11T02:39:29.048Z,16.99
2024-01-11T02:40:29.033Z,16.98
2024-01-11T02:41:29.113Z,17.09
2024-01-11T02:42:29.072Z,17.00
2024-01-11T02:43:29.060Z,16.97
2024-01-11T02:44:29.210Z,16.97
2024-01-11T02:45:29.117Z,17.04
2024-01-11T02:46:29.131Z,17.34
2024-01-11T02:47:29.222Z,17.15
2024-01-11T02:48:29.209Z,17.31
2024-01-11T02:49:29.264Z,17.31
2024-01-11T02:50:29.266Z,17.17
2024-01-11T02:51:29.247Z,16.98
2024-01-11T02:52:29.206Z,16.93
2024-01-11T02:53:29.244Z,17.17
2024-01-11T02:54:29.240Z,17.24
2024-01-11T02:55:29.262Z,17.28
2024-01-11T02:56:29.295Z,17.29
2024-01-11T02:57:29.310Z,17.11
2024-01-11T02:58:29.270Z,17.11
2024-01-11T02:59:29.311Z,17.34
2024-01-11T03:00:29.336Z,17.29
2024-01-11T03:01:29.292Z,17.40
2024-01-11T03:02:29.354Z,17.21
2024-01-11T03:03:29.402Z,17.15
2024-01-11T03:04:29.377Z,17.08
2024-01-11T03:05:29.437Z,17.09
2024-01-11T03:06:29.465Z,17.03
2024-01-11T03:07:29.480Z,17.06
2024-01-11T03:08:29.509Z,17.11
2024-01-11T03:09:29.546Z,17.06
2024-01-11T03:10:29.553Z,17.26
2024-01-11T03:11:29.612Z,17.11
2024-01-11T03:12:29.641Z,17.17
2024-01-11T03:13:29.621Z,17.20
2024-01-11T03:14:29.689Z,17.09
2024-01-11T03:15:29.681Z,17.06
2024-01-11T03:16:29.708Z,17.16
2024-01-11T03:17:29.808Z,17.41
2024-01-11T03:18:29.775Z,17.20
2024-01-11T03:19:29.826Z,17.08
2024-01-11T03:20:29.946Z,17.36
2024-01-11T03:21:29.843Z,17.28
2024-01-11T03:22:29.827Z,17.11
2024-01-11T03:23:29.920Z,17.07
2024-01-11T03:24:29.915Z,17.02
2024-01-11T03:25:29.961Z,17.04
2024-01-11T03:26:30.127Z,16.96
2024-01-11T03:27:29.982Z,17.02
2024-01-11T03:28:30.039Z,17.31
2024-01-11T03:29:30.058Z,17.23
2024-01-11T03:30:30.094Z,17.45
2024-01-11T03:31:30.111Z,17.63
2024-01-11T03:32:30.244Z,17.80
2024-01-11T03:33:30.259Z,17.58
2024-01-11T03:34:30.289Z,17.45
2024-01-11T03:35:30.210Z,17.39
2024-01-11T03:36:30.175Z,17.23
2024-01-11T03:37:30.184Z,17.28
2024-01-11T03:38:30.262Z,17.17
2024-01-11T03:39:30.903Z,17.22
2024-01-11T03:40:30.223Z,17.48
2024-01-11T03:41:30.311Z,17.41
2024-01-11T03:42:30.299Z,17.41
2024-01-11T03:43:30.260Z,17.38
2024-01-11T03:44:30.363Z,17.20
2024-01-11T03:45:30.286Z,17.26
2024-01-11T03:46:30.320Z,17.31
2024-01-11T03:47:30.413Z,17.29
2024-01-11T03:48:30.412Z,17.11
2024-01-11T03:49:30.478Z,17.14
2024-01-11T03:50:30.448Z,17.09
2024-01-11T03:51:30.403Z,17.14
2024-01-11T03:52:30.440Z,17.40
2024-01-11T03:53:30.442Z,17.75
2024-01-11T03:54:30.492Z,17.40
2024-01-11T03:55:30.419Z,17.36
2024-01-11T03:56:30.486Z,17.28
2024-01-11T03:57:30.477Z,17.28
2024-01-11T03:58:30.487Z,17.17
2024-01-11T03:59:30.530Z,17.37
2024-01-11T04:00:30.578Z,17.40
2024-01-11T04:01:30.534Z,17.23
2024-01-11T04:02:30.600Z,17.20
2024-01-11T04:03:30.655Z,17.19
2024-01-11T04:04:30.624Z,17.37
2024-01-11T04:05:30.672Z,17.23
2024-01-11T04:06:30.735Z,17.11
2024-01-11T04:07:30.654Z,17.09
2024-01-11T04:08:30.704Z,17.13
2024-01-11T04:09:30.715Z,17.28
2024-01-11T04:10:30.772Z,17.17
2024-01-11T04:11:30.817Z,17.45
2024-01-11T04:12:30.820Z,17.22
2024-01-11T04:13:30.896Z,17.22
2024-01-11T04:14:31.000Z,17.19
2024-01-11T04:15:30.958Z,17.57
2024-01-11T04:16:31.061Z,17.36
2024-01-11T04:17:31.145Z,17.51
2024-01-11T04:18:31.201Z,17.58
2024-01-11T04:19:31.382Z,17.41
2024-01-11T04:20:31.254Z,17.43
2024-01-11T04:21:31.220Z,17.46
2024-01-11T04:22:31.260Z,17.39
2024-01-11T04:23:31.422Z,17.29
2024-01-11T04:24:31.332Z,17.26
2024-01-11T04:25:31.446Z,17.20
2024-01-11T04:26:31.442Z,17.28
2024-01-11T04:27:38.679Z,17.25
2024-01-11T04:28:38.641Z,17.14
2024-01-11T04:29:38.675Z,17.23
2024-01-11T04:30:38.736Z,17.34
2024-01-11T04:31:46.026Z,17.36
2024-01-11T04:32:46.084Z,17.28
2024-01-11T04:33:45.968Z,17.57
2024-01-11T04:34:45.987Z,17.46
2024-01-11T04:35:45.976Z,17.34
2024-01-11T04:36:45.932Z,17.60
2024-01-11T04:37:45.973Z,17.37
2024-01-11T04:38:45.975Z,17.63
2024-01-11T04:39:45.980Z,17.77
2024-01-11T04:40:45.980Z,17.75
2024-01-11T04:41:46.020Z,17.52
2024-01-11T04:42:45.973Z,17.46
2024-01-11T04:43:46.075Z,17.36
2024-01-11T04:44:46.045Z,17.52
2024-01-11T04:45:46.046Z,17.40
2024-01-11T04:46:46.008Z,17.95
2024-01-11T04:47:46.222Z,17.63
2024-01-11T04:48:46.038Z,17.66
2024-01-11T04:49:46.003Z,17.34
2024-01-11T04:50:46.022Z,17.43
2024-01-11T04:51:45.984Z,17.45
2024-01-11T04:52:45.969Z,17.83
2024-01-11T04:53:46.069Z,17.99
2024-01-11T04:54:45.968Z,17.66
2024-01-11T04:55:45.978Z,17.81
2024-01-11T04:56:46.014Z,17.57
2024-01-11T04:57:46.039Z,17.98
2024-01-11T04:58:46.091Z,17.89
2024-01-11T04:59:46.221Z,17.83
2024-01-11T05:00:46.253Z,17.73
2024-01-11T05:01:46.275Z,17.77
2024-01-11T05:02:46.493Z,17.83
2024-01-11T05:03:46.422Z,17.52
2024-01-11T05:04:46.550Z,17.35
2024-01-11T05:05:46.694Z,17.50
2024-01-11T05:06:46.732Z,17.79
2024-01-11T05:07:46.722Z,17.84
2024-01-11T05:08:46.828Z,17.72
2024-01-11T05:09:46.893Z,17.69
2024-01-11T05:10:46.920Z,17.76
2024-01-11T05:11:47.008Z,17.90
2024-01-11T05:12:47.059Z,17.94
2024-01-11T05:13:47.119Z,17.84
2024-01-11T05:14:47.248Z,18.28
2024-01-11T05:15:47.278Z,17.99
2024-01-11T05:16:47.355Z,18.16
2024-01-11T05:17:47.490Z,18.14
2024-01-11T05:18:47.560Z,18.23
2024-01-11T05:19:47.523Z,17.85
2024-01-11T05:20:47.633Z,18.06
2024-01-11T05:21:47.659Z,18.02
2024-01-11T05:22:47.725Z,17.79
2024-01-11T05:23:47.764Z,17.85
2024-01-11T05:24:47.870Z,17.76
2024-01-11T05:25:47.907Z,17.72
2024-01-11T05:26:48.070Z,17.88
2024-01-11T05:27:48.069Z,17.87
2024-01-11T05:28:48.085Z,17.42
2024-01-11T05:29:48.240Z,17.58
2024-01-11T05:30:48.251Z,18.04
2024-01-11T05:31:48.546Z,18.28
2024-01-11T05:32:48.566Z,18.28
2024-01-11T05:33:49.311Z,18.20
2024-01-11T05:34:48.681Z,17.84
2024-01-11T05:35:48.562Z,17.67
2024-01-11T05:36:48.646Z,17.87
2024-01-11T05:37:48.727Z,17.77
2024-01-11T05:38:48.784Z,18.20
2024-01-11T05:39:48.824Z,17.91
2024-01-11T05:40:48.870Z,17.68
2024-01-11T05:41:49.013Z,17.67
2024-01-11T05:42:49.013Z,17.82
2024-01-11T05:43:49.084Z,18.14
2024-01-11T05:44:49.165Z,17.71
2024-01-11T05:45:49.269Z,17.56
2024-01-11T05:46:49.255Z,17.42
2024-01-11T05:47:49.403Z,17.85
2024-01-11T05:48:49.470Z,17.67
2024-01-11T05:49:49.412Z,17.68
2024-01-11T05:50:49.568Z,17.67
2024-01-11T05:51:49.517Z,17.70
2024-01-11T05:52:49.579Z,17.58
2024-01-11T05:53:49.570Z,17.61
2024-01-11T05:54:49.607Z,17.48
2024-01-11T05:55:50.936Z,17.74
2024-01-11T05:56:49.715Z,17.77
2024-01-11T05:57:49.728Z,17.64
2024-01-11T05:58:49.811Z,17.50
2024-01-11T05:59:49.862Z,17.47
2024-01-11T06:00:50.599Z,17.68
2024-01-11T06:02:15.642Z,18.02
2024-01-11T06:02:50.020Z,17.76
2024-01-11T06:03:50.068Z,17.71
2024-01-11T06:04:50.026Z,17.97
2024-01-11T06:05:50.032Z,18.29
2024-01-11T06:06:50.037Z,18.03
2024-01-11T06:07:50.059Z,17.90
2024-01-11T06:08:50.161Z,17.64
2024-01-11T06:09:50.034Z,17.44
2024-01-11T06:10:50.052Z,18.02
2024-01-11T06:11:50.042Z,18.09
2024-01-11T06:12:50.080Z,18.64
2024-01-11T06:13:49.994Z,18.91
2024-01-11T06:14:50.031Z,17.96
2024-01-11T06:15:50.120Z,18.14
2024-01-11T06:16:49.991Z,18.15
2024-01-11T06:17:50.198Z,18.80
2024-01-11T06:18:50.128Z,18.73
2024-01-11T06:19:50.026Z,17.94
2024-01-11T06:20:50.047Z,18.76
2024-01-11T06:21:50.052Z,18.19
2024-01-11T06:22:50.042Z,18.29
2024-01-11T06:23:50.094Z,18.08
2024-01-11T06:24:50.055Z,18.63
2024-01-11T06:25:50.023Z,19.10
2024-01-11T06:26:50.078Z,18.19
2024-01-11T06:27:50.083Z,18.05
2024-01-11T06:28:50.080Z,19.06
2024-01-11T06:29:50.189Z,19.29
2024-01-11T06:30:50.142Z,17.72
2024-01-11T06:31:50.106Z,18.11
2024-01-11T06:32:50.181Z,18.23
2024-01-11T06:33:51.655Z,18.73
2024-01-11T06:34:50.109Z,18.43
2024-01-11T06:35:51.150Z,18.26
2024-01-11T06:36:50.042Z,18.38
2024-01-11T06:37:50.040Z,18.17
2024-01-11T06:38:50.088Z,18.57
2024-01-11T06:39:50.049Z,19.06
2024-01-11T06:40:50.259Z,19.64
2024-01-11T06:41:50.174Z,19.66
2024-01-11T06:42:50.283Z,20.17
2024-01-11T06:43:50.395Z,20.56
2024-01-11T06:44:50.509Z,20.73
2024-01-11T06:45:50.506Z,20.57
2024-01-11T06:47:13.034Z,21.30
2024-01-11T06:47:50.901Z,20.75
2024-01-11T06:48:50.570Z,20.53
2024-01-11T06:49:50.677Z,20.22
2024-01-11T06:50:52.048Z,19.75
2024-01-11T06:51:50.368Z,19.80
2024-01-11T06:52:50.445Z,20.04
2024-01-11T06:53:50.386Z,20.83
2024-01-11T06:54:50.389Z,20.95
2024-01-11T06:55:50.403Z,21.04
2024-01-11T06:56:50.430Z,20.91
2024-01-11T06:57:50.517Z,20.44
2024-01-11T06:58:50.378Z,19.85
2024-01-11T06:59:50.508Z,20.45
2024-01-11T07:00:50.882Z,20.50
2024-01-11T07:01:50.350Z,20.02
2024-01-11T07:02:50.526Z,19.78
2024-01-11T07:03:50.422Z,19.28
2024-01-11T07:04:50.366Z,19.59
2024-01-11T07:05:50.802Z,20.08
2024-01-11T07:06:50.420Z,19.08
2024-01-11T07:07:50.534Z,19.15
2024-01-11T07:08:50.555Z,18.94
2024-01-11T07:09:50.558Z,19.34
2024-01-11T07:10:52.160Z,19.62
2024-01-11T07:11:50.810Z,19.45
2024-01-11T07:12:50.783Z,19.36
2024-01-11T07:13:50.897Z,19.53
2024-01-11T07:14:50.908Z,19.42
2024-01-11T07:15:51.184Z,19.36
2024-01-11T07:16:51.047Z,19.20
2024-01-11T07:17:51.531Z,18.94
2024-01-11T07:18:51.563Z,19.02
2024-01-11T07:19:51.140Z,19.32
2024-01-11T07:20:51.779Z,19.20
2024-01-11T07:21:51.266Z,19.34
2024-01-11T07:22:51.312Z,19.14
2024-01-11T07:23:51.428Z,18.67
2024-01-11T07:24:51.433Z,18.68
2024-01-11T07:25:51.861Z,19.25
2024-01-11T07:26:51.527Z,19.24
2024-01-11T07:27:51.677Z,18.66
2024-01-11T07:28:51.622Z,18.79
2024-01-11T07:29:51.776Z,18.75
2024-01-11T07:30:51.915Z,19.08
2024-01-11T07:31:51.842Z,18.65
2024-01-11T07:32:52.008Z,19.22
2024-01-11T07:33:52.580Z,20.09
2024-01-11T07:34:51.993Z,20.02
2024-01-11T07:35:52.409Z,19.49
2024-01-11T07:36:52.398Z,19.45
2024-01-11T07:37:52.137Z,19.55
2024-01-11T07:38:52.188Z,21.13
2024-01-11T07:39:52.158Z,21.52
2024-01-11T07:40:52.821Z,21.23
2024-01-11T07:41:52.438Z,21.30
2024-01-11T07:42:52.301Z,21.36
2024-01-11T07:43:54.682Z,20.98
2024-01-11T07:44:52.476Z,20.77
2024-01-11T07:45:52.341Z,20.27
2024-01-11T07:46:54.535Z,20.35
2024-01-11T07:47:53.265Z,20.27
2024-01-11T07:48:52.826Z,20.06
2024-01-11T07:49:52.841Z,19.86
2024-01-11T07:50:52.440Z,19.68
2024-01-11T07:51:52.310Z,19.56
2024-01-11T07:52:52.383Z,19.44
2024-01-11T07:53:52.785Z,19.69
2024-01-11T07:54:52.433Z,20.05
2024-01-11T07:55:52.466Z,20.14
2024-01-11T07:56:52.447Z,20.11
2024-01-11T07:57:52.355Z,20.42
2024-01-11T07:58:53.135Z,20.69
2024-01-11T07:59:53.082Z,20.83
2024-01-11T08:00:52.512Z,20.30
2024-01-11T08:01:52.436Z,21.21
2024-01-11T08:02:53.014Z,21.06
2024-01-11T08:03:53.302Z,20.93
2024-01-11T08:04:53.065Z,20.99
2024-01-11T08:05:52.508Z,20.97
2024-01-11T08:06:53.080Z,20.95
2024-01-11T08:07:52.384Z,20.88
2024-01-11T08:08:53.380Z,20.77
2024-01-11T08:10:18.650Z,20.70
2024-01-11T08:10:52.756Z,20.72
2024-01-11T08:11:53.662Z,20.77
2024-01-11T08:12:53.383Z,20.72
2024-01-11T08:13:52.593Z,20.65
2024-01-11T08:14:52.690Z,20.57
2024-01-11T08:15:52.983Z,20.89
2024-01-11T08:16:52.992Z,21.41
2024-01-11T08:17:52.792Z,21.68
2024-01-11T08:18:52.660Z,22.63
2024-01-11T08:19:53.581Z,21.90
2024-01-11T08:20:52.720Z,21.14
2024-01-11T08:21:53.083Z,21.34
2024-01-11T08:22:52.640Z,21.55
2024-01-11T08:23:52.711Z,21.63
2024-01-11T08:24:53.250Z,21.83
2024-01-11T08:25:52.748Z,21.71
2024-01-11T08:26:53.074Z,21.11
2024-01-11T08:27:53.560Z,21.31
2024-01-11T08:28:53.028Z,21.40
2024-01-11T08:29:52.671Z,21.10
2024-01-11T08:30:53.656Z,21.22
2024-01-11T08:31:53.599Z,21.23
2024-01-11T08:32:52.993Z,20.01
2024-01-11T08:33:56.442Z,18.94
2024-01-11T08:34:53.314Z,19.63
2024-01-11T08:35:53.270Z,19.59
2024-01-11T08:36:53.326Z,19.47
2024-01-11T08:37:53.653Z,20.00
2024-01-11T08:38:53.299Z,20.63
2024-01-11T08:39:53.795Z,19.40
2024-01-11T08:40:53.680Z,18.76
2024-01-11T08:41:52.827Z,18.59
2024-01-11T08:42:52.822Z,18.99
2024-01-11T08:43:52.817Z,19.60
2024-01-11T08:44:52.828Z,19.51
2024-01-11T08:45:52.945Z,19.71
2024-01-11T08:46:52.849Z,19.81
2024-01-11T08:47:52.900Z,19.30
2024-01-11T08:48:52.964Z,19.10
2024-01-11T08:49:52.793Z,19.76
2024-01-11T08:50:52.957Z,20.29
2024-01-11T08:51:52.822Z,20.34
2024-01-11T08:52:52.899Z,19.57
2024-01-11T08:53:52.893Z,19.69
2024-01-11T08:54:52.953Z,19.77
2024-01-11T08:55:52.905Z,19.45
2024-01-11T08:56:53.287Z,19.23
2024-01-11T08:57:53.219Z,19.82
2024-01-11T08:59:15.479Z,19.79
2024-01-11T08:59:52.868Z,19.53
2024-01-11T09:00:52.908Z,19.89
2024-01-11T09:01:57.823Z,20.10
2024-01-11T09:02:53.844Z,19.57
2024-01-11T09:03:52.916Z,19.40
2024-01-11T09:04:52.881Z,19.56
2024-01-11T09:05:53.652Z,19.84
2024-01-11T09:06:52.842Z,19.97
2024-01-11T09:07:54.423Z,20.12
2024-01-11T09:08:53.243Z,20.21
2024-01-11T09:09:56.777Z,20.01
2024-01-11T09:10:52.845Z,20.01
2024-01-11T09:11:52.811Z,20.01
2024-01-11T09:12:52.882Z,19.82
2024-01-11T09:13:52.821Z,19.62
2024-01-11T09:14:52.996Z,19.07
2024-01-11T09:15:52.887Z,19.15
2024-01-11T09:16:52.860Z,19.29
2024-01-11T09:17:53.064Z,18.98
2024-01-11T09:18:52.902Z,19.58
2024-01-11T09:19:52.934Z,19.36
2024-01-11T09:20:53.839Z,18.93
2024-01-11T09:21:53.244Z,19.48
2024-01-11T09:22:53.242Z,19.74
2024-01-11T09:23:53.181Z,19.88
2024-01-11T09:24:52.856Z,18.48
2024-01-11T09:25:52.847Z,18.05
2024-01-11T09:26:53.323Z,17.53
2024-01-11T09:27:52.878Z,18.06
2024-01-11T09:28:52.873Z,18.03
2024-01-11T09:29:55.628Z,18.28
2024-01-11T09:30:52.986Z,18.15
2024-01-11T09:31:53.289Z,19.08
2024-01-11T09:32:53.149Z,19.55
2024-01-11T09:33:53.044Z,20.42
2024-01-11T09:34:53.055Z,20.54
2024-01-11T09:35:52.999Z,20.25
2024-01-11T09:36:53.285Z,20.31
2024-01-11T09:37:53.667Z,20.29
2024-01-11T09:38:53.002Z,19.73
2024-01-11T09:39:53.014Z,19.68
2024-01-11T09:40:53.326Z,19.27
2024-01-11T09:41:52.926Z,18.83
2024-01-11T09:42:53.689Z,18.67
2024-01-11T09:43:52.929Z,18.03
2024-01-11T09:44:52.979Z,18.57
2024-01-11T09:45:52.888Z,19.28
2024-01-11T09:46:53.248Z,19.26
2024-01-11T09:47:52.934Z,20.34
2024-01-11T09:48:52.997Z,21.66
2024-01-11T09:49:52.978Z,21.63
2024-01-11T09:50:52.924Z,21.03
2024-01-11T09:51:53.279Z,20.53
2024-01-11T09:52:52.881Z,20.68
2024-01-11T09:53:54.830Z,21.34
2024-01-11T09:54:53.013Z,20.89
2024-01-11T09:55:52.895Z,21.10
2024-01-11T09:56:53.381Z,21.24
2024-01-11T09:57:52.953Z,21.50
2024-01-11T09:58:52.981Z,19.98
2024-01-11T09:59:53.779Z,20.07
2024-01-11T10:00:53.107Z,20.18
2024-01-11T10:01:53.306Z,20.51
2024-01-11T10:02:53.744Z,20.59
2024-01-11T10:03:53.339Z,20.47
2024-01-11T10:04:53.566Z,20.12
2024-01-11T10:05:53.273Z,20.01
2024-01-11T10:06:53.606Z,19.71
2024-01-11T10:07:53.223Z,20.03
2024-01-11T10:08:53.386Z,19.78
2024-01-11T10:09:54.151Z,20.07
2024-01-11T10:10:53.909Z,19.88
2024-01-11T10:11:53.619Z,20.35
2024-01-11T10:12:53.428Z,20.49
2024-01-11T10:13:54.147Z,20.60
2024-01-11T10:14:54.059Z,20.94
2024-01-11T10:15:53.841Z,20.79
2024-01-11T10:16:53.549Z,20.83
2024-01-11T10:17:54.507Z,21.08
2024-01-11T10:18:54.338Z,20.92
2024-01-11T10:19:54.232Z,20.99
2024-01-11T10:20:53.911Z,20.98
2024-01-11T10:21:54.953Z,20.99
2024-01-11T10:22:53.690Z,20.93
2024-01-11T10:23:53.709Z,21.08
2024-01-11T10:24:53.823Z,21.09
2024-01-11T10:25:54.007Z,21.34
2024-01-11T10:26:54.453Z,21.55
2024-01-11T10:27:55.404Z,21.35
2024-01-11T10:28:53.938Z,21.35
2024-01-11T10:29:54.399Z,21.49
2024-01-11T10:30:54.613Z,21.49
2024-01-11T10:31:56.760Z,21.48
2024-01-11T10:32:55.203Z,22.22
2024-01-11T10:33:54.257Z,21.46
2024-01-11T10:34:54.456Z,21.10
2024-01-11T10:35:54.296Z,21.71
2024-01-11T10:36:55.203Z,21.26
2024-01-11T10:37:54.279Z,21.45
2024-01-11T10:38:54.100Z,21.15
2024-01-11T10:39:54.119Z,21.25
2024-01-11T10:40:54.257Z,21.09
2024-01-11T10:41:54.569Z,20.98
2024-01-11T10:42:54.137Z,21.71
2024-01-11T10:43:54.253Z,21.72
2024-01-11T10:44:54.269Z,22.18
2024-01-11T10:45:54.268Z,22.52
2024-01-11T10:46:54.338Z,20.90
2024-01-11T10:47:54.808Z,20.56
2024-01-11T10:48:54.395Z,20.78
2024-01-11T10:49:54.588Z,20.62
2024-01-11T10:50:54.193Z,20.44
2024-01-11T10:51:54.587Z,20.83
2024-01-11T10:52:54.146Z,20.78
2024-01-11T10:53:54.536Z,20.87
2024-01-11T10:54:54.120Z,20.98
2024-01-11T10:55:54.424Z,21.02
2024-01-11T10:56:54.187Z,21.04
2024-01-11T10:57:55.665Z,20.91
2024-01-11T10:58:54.119Z,20.80
2024-01-11T10:59:54.201Z,20.83
2024-01-11T11:02:02.917Z,20.72
2024-01-11T11:03:02.616Z,20.59
2024-01-11T11:04:02.356Z,20.53
2024-01-11T11:05:02.491Z,20.55
2024-01-11T11:06:02.508Z,20.07
2024-01-11T11:07:02.491Z,20.11
2024-01-11T11:08:03.290Z,20.10
2024-01-11T11:09:03.118Z,20.33
2024-01-11T11:10:03.259Z,20.27
2024-01-11T11:11:02.779Z,20.85
2024-01-11T11:12:02.433Z,20.26
2024-01-11T11:13:02.757Z,20.45
2024-01-11T11:14:02.455Z,20.60
2024-01-11T11:15:02.386Z,20.35
2024-01-11T11:16:02.550Z,20.53
2024-01-11T11:17:02.725Z,20.91
2024-01-11T11:18:02.400Z,20.35
2024-01-11T11:19:02.430Z,20.46
2024-01-11T11:20:02.405Z,20.45
2024-01-11T11:21:02.314Z,20.44
2024-01-11T11:22:02.350Z,21.03
2024-01-11T11:23:03.334Z,20.69
2024-01-11T11:24:02.427Z,20.65
2024-01-11T11:25:02.364Z,20.25
2024-01-11T11:26:02.340Z,20.21
2024-01-11T11:27:13.612Z,20.25
2024-01-11T11:28:02.317Z,20.16
2024-01-11T11:29:03.299Z,20.12
2024-01-11T11:30:02.640Z,20.24
2024-01-11T11:31:02.339Z,20.12
2024-01-11T11:32:02.545Z,20.20
2024-01-11T11:33:02.425Z,20.24
2024-01-11T11:34:03.912Z,19.98
2024-01-11T11:35:02.340Z,19.96
2024-01-11T11:36:02.388Z,20.76
2024-01-11T11:37:02.739Z,21.37
2024-01-11T11:38:02.362Z,22.75
2024-01-11T11:39:02.404Z,22.71
2024-01-11T11:40:02.422Z,22.28
2024-01-11T11:41:02.764Z,20.86
2024-01-11T11:42:02.454Z,22.41
2024-01-11T11:43:03.273Z,20.67
2024-01-11T11:44:02.561Z,22.00
2024-01-11T11:45:04.136Z,21.73
2024-01-11T11:46:04.188Z,20.46
2024-01-11T11:47:03.110Z,19.90
2024-01-11T11:48:03.105Z,19.81
2024-01-11T11:49:02.988Z,19.44
2024-01-11T11:50:02.555Z,19.11
2024-01-11T11:51:02.612Z,18.77
2024-01-11T11:52:02.624Z,18.39
2024-01-11T11:53:02.658Z,18.50
2024-01-11T11:54:02.654Z,18.26
2024-01-11T11:55:02.754Z,18.17
2024-01-11T11:56:02.718Z,18.10
2024-01-11T11:57:03.128Z,18.70
2024-01-11T11:58:02.912Z,18.37
2024-01-11T11:59:02.835Z,17.86
2024-01-11T12:00:02.821Z,17.69
2024-01-11T12:01:02.817Z,17.62
2024-01-11T12:02:02.834Z,17.52
2024-01-11T12:03:03.032Z,17.46
2024-01-11T12:04:03.018Z,17.45
2024-01-11T12:05:03.195Z,17.37
2024-01-11T12:06:03.214Z,17.36
2024-01-11T12:07:03.373Z,17.24
2024-01-11T12:08:03.097Z,17.29
2024-01-11T12:09:03.042Z,17.27
2024-01-11T12:10:03.151Z,17.24
2024-01-11T12:11:03.149Z,17.25
2024-01-11T12:12:11.473Z,17.19
2024-01-11T12:13:04.197Z,17.19
2024-01-11T12:14:03.872Z,17.27
2024-01-11T12:15:03.284Z,17.19
2024-01-11T12:16:03.176Z,17.38
2024-01-11T12:17:03.185Z,17.32
2024-01-11T12:18:03.381Z,17.29
2024-01-11T12:19:03.676Z,17.14
2024-01-11T12:20:03.259Z,17.10
2024-01-11T12:21:03.187Z,17.45
2024-01-11T12:22:03.248Z,17.97
2024-01-11T12:23:03.285Z,18.10
2024-01-11T12:24:03.264Z,18.79
2024-01-11T12:25:03.245Z,18.79
2024-01-11T12:26:03.258Z,18.61
2024-01-11T12:27:03.326Z,19.36
2024-01-11T12:28:03.477Z,19.84
2024-01-11T12:29:03.357Z,19.86
2024-01-11T12:30:03.423Z,20.58
2024-01-11T12:31:03.360Z,19.69
2024-01-11T12:32:03.862Z,18.69
2024-01-11T12:33:03.677Z,18.30
2024-01-11T12:34:03.588Z,18.26
2024-01-11T12:35:03.496Z,17.88
2024-01-11T12:36:03.968Z,17.85
2024-01-11T12:37:03.651Z,17.71
2024-01-11T12:38:03.764Z,17.63
2024-01-11T12:39:03.811Z,17.59
2024-01-11T12:40:03.683Z,17.47
2024-01-11T12:41:03.895Z,17.59
2024-01-11T12:42:03.803Z,17.56
2024-01-11T12:43:04.021Z,17.53
2024-01-11T12:44:04.051Z,17.49
2024-01-11T12:45:04.495Z,17.50
2024-01-11T12:46:04.171Z,17.54
2024-01-11T12:47:04.155Z,17.45
2024-01-11T12:48:05.271Z,17.49
2024-01-11T12:49:04.325Z,17.47
2024-01-11T12:50:04.346Z,17.38
2024-01-11T12:51:13.690Z,17.61
2024-01-11T12:52:05.823Z,17.58
2024-01-11T12:53:04.645Z,18.17
2024-01-11T12:54:04.543Z,18.19